createdAt,value
2022-08-12T00:00:52.827Z,2.93
2022-08-12T00:03:40.722Z,2.97
2022-08-12T00:06:29.885Z,3.10
2022-08-12T00:09:18.976Z,2.80
2022-08-12T00:12:10.131Z,3.13
2022-08-12T00:15:00.024Z,3.20
2022-08-12T00:17:49.331Z,2.60
2022-08-12T00:20:37.076Z,3.20
2022-08-12T00:23:29.228Z,2.60
2022-08-12T00:26:22.951Z,3.00
2022-08-12T00:29:12.877Z,2.80
2022-08-12T00:32:02.591Z,2.47
2022-08-12T00:34:55.060Z,2.80
2022-08-12T00:37:43.805Z,2.80
2022-08-12T00:40:33.410Z,3.00
2022-08-12T00:43:04.982Z,2.77
2022-08-12T00:45:56.784Z,3.07
2022-08-12T00:48:36.526Z,2.30
2022-08-12T00:51:11.034Z,2.70
2022-08-12T00:53:43.286Z,2.73
2022-08-12T00:56:14.716Z,2.38
2022-08-12T00:58:54.084Z,2.63
2022-08-12T01:01:26.919Z,2.83
2022-08-12T01:04:19.139Z,2.77
2022-08-12T01:07:07.605Z,3.10
2022-08-12T01:12:41.872Z,3.27
2022-08-12T01:15:15.539Z,3.10
2022-08-12T01:17:48.379Z,2.80
2022-08-12T01:20:37.091Z,2.57
2022-08-12T01:23:40.430Z,2.70
2022-08-12T01:26:19.967Z,2.70
2022-08-12T01:28:54.221Z,3.23
2022-08-12T01:31:28.979Z,3.03
2022-08-12T01:34:31.113Z,2.70
2022-08-12T01:37:03.689Z,2.90
2022-08-12T01:39:37.147Z,2.90
2022-08-12T01:42:13.097Z,3.23
2022-08-12T01:44:44.480Z,3.20
2022-08-12T01:47:32.277Z,2.88
2022-08-12T01:50:28.102Z,3.10
2022-08-12T01:53:09.255Z,3.10
2022-08-12T01:55:43.028Z,3.33
2022-08-12T01:58:27.319Z,3.10
2022-08-12T02:01:01.982Z,3.10
2022-08-12T02:04:15.638Z,2.60
2022-08-12T02:07:13.769Z,3.20
2022-08-12T02:10:49.957Z,3.40
2022-08-12T02:13:18.189Z,3.13
2022-08-12T02:16:20.304Z,2.67
2022-08-12T02:19:01.599Z,3.50
2022-08-12T02:21:43.485Z,2.63
2022-08-12T02:24:19.514Z,2.73
2022-08-12T02:26:52.620Z,3.00
2022-08-12T02:29:24.001Z,2.70
2022-08-12T02:32:12.542Z,2.97
2022-08-12T02:34:46.945Z,3.13
2022-08-12T02:37:18.693Z,3.37
2022-08-12T02:39:52.916Z,3.23
2022-08-12T02:42:25.402Z,2.90
2022-08-12T02:44:59.853Z,2.60
2022-08-12T02:47:59.835Z,3.10
2022-08-12T02:50:35.615Z,3.07
2022-08-12T02:53:07.600Z,3.00
2022-08-12T02:55:39.677Z,2.60
2022-08-12T02:58:14.675Z,3.23
2022-08-12T03:00:47.498Z,3.00
2022-08-12T03:03:24.942Z,2.60
2022-08-12T03:06:02.721Z,2.93
2022-08-12T03:08:39.186Z,2.97
2022-08-12T03:11:19.595Z,3.00
2022-08-12T03:13:55.517Z,3.00
2022-08-12T03:16:27.895Z,2.80
2022-08-12T03:19:06.420Z,3.00
2022-08-12T03:22:05.885Z,3.20
2022-08-12T03:24:32.686Z,3.50
2022-08-12T03:27:06.911Z,3.90
2022-08-12T03:29:43.336Z,3.90
2022-08-12T03:32:36.387Z,3.57
2022-08-12T03:35:40.268Z,3.00
2022-08-12T03:38:13.001Z,3.10
2022-08-12T03:41:13.867Z,3.20
2022-08-12T03:44:10.422Z,3.23
2022-08-12T03:47:02.459Z,3.20
2022-08-12T03:49:50.026Z,3.10
2022-08-12T03:52:44.426Z,3.10
2022-08-12T03:55:45.304Z,3.00
2022-08-12T03:58:34.675Z,2.97
2022-08-12T04:01:07.371Z,3.20
2022-08-12T04:03:56.948Z,2.73
2022-08-12T04:06:35.316Z,2.93
2022-08-12T04:09:15.787Z,3.00
2022-08-12T04:12:05.652Z,3.80
2022-08-12T04:14:39.105Z,2.90
2022-08-12T04:17:11.217Z,3.13
2022-08-12T04:19:43.069Z,3.40
2022-08-12T04:22:14.777Z,3.00
2022-08-12T04:24:50.445Z,3.47
2022-08-12T04:27:22.243Z,3.60
2022-08-12T04:30:21.291Z,3.43
2022-08-12T04:32:46.654Z,3.80
2022-08-12T04:35:18.351Z,3.60
2022-08-12T04:37:59.717Z,3.33
2022-08-12T04:40:35.550Z,3.20
2022-08-12T04:43:54.453Z,3.30
2022-08-12T04:46:00.015Z,3.50
2022-08-12T04:48:32.336Z,3.20
2022-08-12T04:51:04.098Z,3.23
2022-08-12T04:53:35.827Z,3.10
2022-08-12T04:56:09.806Z,2.90
2022-08-12T04:58:41.953Z,3.10
2022-08-12T05:01:14.209Z,3.23
2022-08-12T05:03:46.396Z,3.30
2022-08-12T05:06:26.661Z,3.70
2022-08-12T05:08:58.469Z,3.33
2022-08-12T05:11:34.729Z,3.87
2022-08-12T05:14:06.104Z,3.97
2022-08-12T05:16:38.219Z,3.67
2022-08-12T05:19:12.782Z,3.57
2022-08-12T05:21:49.880Z,3.60
2022-08-12T05:24:21.247Z,3.60
2022-08-12T05:26:54.690Z,3.27
2022-08-12T05:30:07.559Z,3.27
2022-08-12T05:32:21.636Z,3.20
2022-08-12T05:34:54.405Z,3.50
2022-08-12T05:37:27.089Z,3.53
2022-08-12T05:39:58.375Z,3.07
2022-08-12T05:42:34.610Z,3.80
2022-08-12T05:47:53.457Z,3.47
2022-08-12T05:50:39.243Z,3.77
2022-08-12T05:53:10.929Z,3.20
2022-08-12T05:55:47.516Z,3.43
2022-08-12T05:58:21.520Z,3.37
2022-08-12T06:00:52.970Z,3.17
2022-08-12T06:03:26.493Z,3.53
2022-08-12T06:05:58.341Z,3.63
2022-08-12T06:08:30.393Z,3.33
2022-08-12T06:11:02.870Z,3.50
2022-08-12T06:13:53.129Z,3.37
2022-08-12T06:16:29.122Z,3.63
2022-08-12T06:19:00.393Z,3.77
2022-08-12T06:21:32.308Z,3.07
2022-08-12T06:24:05.192Z,3.77
2022-08-12T06:26:40.907Z,3.40
2022-08-12T06:30:07.534Z,3.57
2022-08-12T06:32:21.936Z,3.90
2022-08-12T06:35:24.388Z,4.00
2022-08-12T06:38:07.253Z,3.10
2022-08-12T06:40:56.171Z,3.73
2022-08-12T06:43:27.849Z,3.20
2022-08-12T06:46:23.117Z,3.30
2022-08-12T06:48:59.338Z,3.67
2022-08-12T06:51:33.168Z,3.40
2022-08-12T06:54:06.497Z,3.27
2022-08-12T06:57:02.977Z,4.13
2022-08-12T06:59:29.205Z,3.43
2022-08-12T07:02:02.890Z,3.30
2022-08-12T07:04:37.825Z,3.20
2022-08-12T07:07:10.643Z,3.33
2022-08-12T07:10:01.328Z,3.40
2022-08-12T07:12:34.787Z,3.53
2022-08-12T07:15:06.770Z,3.27
2022-08-12T07:17:41.196Z,3.53
2022-08-12T07:20:35.836Z,3.27
2022-08-12T07:23:08.567Z,3.50
2022-08-12T07:25:41.859Z,3.53
2022-08-12T07:28:16.906Z,3.33
2022-08-12T07:30:50.898Z,3.47
2022-08-12T07:33:29.259Z,3.20
2022-08-12T07:36:03.462Z,3.60
2022-08-12T07:38:36.623Z,3.60
2022-08-12T07:41:15.619Z,3.40
2022-08-12T07:43:50.922Z,3.50
2022-08-12T07:46:24.119Z,3.47
2022-08-12T07:49:00.766Z,3.53
2022-08-12T07:51:33.023Z,3.70
2022-08-12T07:54:05.492Z,4.40
2022-08-12T07:56:36.470Z,4.20
2022-08-12T07:59:09.137Z,3.60
2022-08-12T08:01:40.950Z,3.17
2022-08-12T08:04:33.766Z,3.83
2022-08-12T08:07:05.085Z,3.60
2022-08-12T08:09:36.757Z,3.40
2022-08-12T08:12:24.702Z,3.40
2022-08-12T08:14:59.160Z,3.27
2022-08-12T08:17:31.180Z,2.97
2022-08-12T08:20:04.757Z,3.20
2022-08-12T08:22:41.997Z,3.53
2022-08-12T08:25:35.704Z,3.13
2022-08-12T08:28:07.056Z,3.00
2022-08-12T08:30:40.963Z,3.70
2022-08-12T08:33:22.956Z,3.20
2022-08-12T08:36:23.791Z,3.80
2022-08-12T08:38:58.116Z,3.50
2022-08-12T08:42:16.224Z,3.10
2022-08-12T08:44:40.449Z,3.30
2022-08-12T08:47:13.145Z,3.20
2022-08-12T08:49:44.926Z,3.10
2022-08-12T08:52:40.214Z,3.27
2022-08-12T08:55:14.888Z,3.17
2022-08-12T08:57:47.149Z,3.33
2022-08-12T09:00:18.918Z,3.23
2022-08-12T09:02:58.722Z,3.27
2022-08-12T09:05:43.250Z,3.27
2022-08-12T09:08:26.783Z,2.90
2022-08-12T09:12:07.496Z,3.23
2022-08-12T09:14:17.864Z,3.17
2022-08-12T09:16:51.907Z,3.47
2022-08-12T09:19:27.335Z,3.37
2022-08-12T09:22:00.790Z,3.67
2022-08-12T09:24:34.581Z,3.20
2022-08-12T09:27:08.093Z,3.40
2022-08-12T09:30:10.108Z,3.80
2022-08-12T09:33:05.200Z,3.30
2022-08-12T09:35:28.508Z,3.50
2022-08-12T09:38:01.183Z,3.40
2022-08-12T09:40:57.865Z,3.30
2022-08-12T09:43:47.014Z,3.20
2022-08-12T09:46:25.962Z,3.33
2022-08-12T09:48:57.804Z,3.53
2022-08-12T09:51:38.226Z,3.67
2022-08-12T09:54:34.281Z,3.33
2022-08-12T09:58:08.085Z,3.70
2022-08-12T10:00:15.278Z,3.60
2022-08-12T10:03:08.766Z,3.60
2022-08-12T10:06:19.991Z,3.27
2022-08-12T10:08:53.594Z,3.13
2022-08-12T10:12:11.126Z,3.40
2022-08-12T10:14:50.479Z,3.03
2022-08-12T10:17:25.817Z,3.83
2022-08-12T10:19:59.757Z,3.40
2022-08-12T10:22:39.197Z,3.27
2022-08-12T10:26:35.548Z,3.00
2022-08-12T10:28:39.236Z,2.97
2022-08-12T10:31:16.314Z,3.13
2022-08-12T10:34:05.175Z,3.67
2022-08-12T10:36:40.809Z,2.90
2022-08-12T10:40:01.310Z,2.70
2022-08-12T10:42:29.392Z,2.70
2022-08-12T10:45:04.617Z,2.87
2022-08-12T10:48:19.134Z,2.40
2022-08-12T10:50:58.318Z,2.57
2022-08-12T10:53:43.604Z,2.80
2022-08-12T10:56:14.637Z,2.67
2022-08-12T10:58:47.138Z,2.67
2022-08-12T11:01:49.458Z,2.80
2022-08-12T11:04:22.489Z,3.43
2022-08-12T11:08:35.087Z,3.00
2022-08-12T11:10:02.147Z,3.20
2022-08-12T11:12:55.254Z,2.90
2022-08-12T11:15:33.315Z,3.10
2022-08-12T11:18:19.015Z,2.73
2022-08-12T11:20:52.421Z,2.93
2022-08-12T11:23:36.218Z,3.13
2022-08-12T11:26:10.640Z,3.00
2022-08-12T11:28:42.335Z,2.97
2022-08-12T11:31:30.566Z,2.77
2022-08-12T11:34:51.539Z,2.87
2022-08-12T11:37:24.830Z,2.90
2022-08-12T11:42:46.001Z,3.13
2022-08-12T11:45:19.631Z,2.80
2022-08-12T11:47:51.467Z,3.00
2022-08-12T11:50:32.160Z,2.80
2022-08-12T11:53:06.399Z,2.97
2022-08-12T11:55:59.427Z,3.10
2022-08-12T12:00:55.433Z,2.93
2022-08-12T12:02:02.458Z,2.87
2022-08-12T12:04:29.048Z,2.90
2022-08-12T12:07:06.694Z,3.00
2022-08-12T12:09:52.608Z,3.30
2022-08-12T12:12:26.205Z,2.80
2022-08-12T12:15:01.615Z,3.00
2022-08-12T12:17:41.081Z,3.27
2022-08-12T12:20:14.325Z,2.80
2022-08-12T12:22:46.021Z,2.97
2022-08-12T12:25:22.057Z,2.63
2022-08-12T12:28:35.439Z,3.10
2022-08-12T12:31:04.541Z,3.20
2022-08-12T12:33:56.837Z,3.30
2022-08-12T12:36:30.157Z,3.30
2022-08-12T12:39:02.333Z,3.37
2022-08-12T12:42:41.644Z,3.03
2022-08-12T12:44:38.689Z,2.97
2022-08-12T12:47:29.325Z,3.10
2022-08-12T12:50:02.086Z,2.93
2022-08-12T12:52:36.793Z,3.20
2022-08-12T12:55:08.470Z,3.10
2022-08-12T12:58:00.545Z,3.30
2022-08-12T13:00:33.725Z,3.40
2022-08-12T13:03:05.028Z,3.10
2022-08-12T13:05:42.585Z,2.77
2022-08-12T13:08:27.845Z,3.20
2022-08-12T13:11:04.471Z,3.00
2022-08-12T13:14:08.228Z,3.13
2022-08-12T13:16:32.515Z,2.83
2022-08-12T13:19:04.427Z,3.20
2022-08-12T13:21:59.175Z,3.90
2022-08-12T13:24:31.566Z,3.10
2022-08-12T13:27:04.339Z,3.63
2022-08-12T13:29:41.018Z,3.30
2022-08-12T13:32:28.296Z,3.60
2022-08-12T13:35:20.309Z,3.23
2022-08-12T13:37:56.639Z,3.17
2022-08-12T13:40:32.466Z,3.40
2022-08-12T13:43:07.643Z,3.30
2022-08-12T13:45:41.044Z,3.83
2022-08-12T13:48:12.722Z,3.53
2022-08-12T13:50:50.961Z,3.30
2022-08-12T13:53:24.062Z,3.30
2022-08-12T13:55:59.426Z,3.20
2022-08-12T13:58:39.032Z,3.17
2022-08-12T14:01:16.084Z,3.73
2022-08-12T14:03:50.668Z,3.40
2022-08-12T14:06:25.946Z,3.20
2022-08-12T14:09:14.413Z,3.30
2022-08-12T14:11:59.163Z,3.70
2022-08-12T14:14:35.533Z,4.10
2022-08-12T14:17:10.877Z,3.50
2022-08-12T14:20:02.916Z,4.90
2022-08-12T14:22:38.205Z,4.23
2022-08-12T14:25:10.489Z,4.60
2022-08-12T14:28:03.379Z,4.23
2022-08-12T14:30:34.030Z,4.93
2022-08-12T14:33:11.144Z,5.00
2022-08-12T14:35:46.050Z,4.63
2022-08-12T14:38:25.892Z,4.50
2022-08-12T14:40:59.488Z,4.50
2022-08-12T14:43:44.300Z,4.40
2022-08-12T14:46:28.277Z,5.27
2022-08-12T14:49:27.479Z,4.83
2022-08-12T14:52:55.966Z,4.23
2022-08-12T14:56:58.737Z,4.27
2022-08-12T14:57:57.656Z,4.60
2022-08-12T15:00:52.238Z,5.03
2022-08-12T15:03:36.765Z,4.90
2022-08-12T15:06:38.944Z,4.80
2022-08-12T15:09:16.111Z,5.13
2022-08-12T15:12:03.052Z,5.73
2022-08-12T15:14:38.014Z,5.70
2022-08-12T15:17:09.406Z,5.20
2022-08-12T15:20:27.930Z,5.20
2022-08-12T15:22:37.442Z,5.00
2022-08-12T15:25:17.557Z,5.13
2022-08-12T15:28:04.757Z,4.83
2022-08-12T15:30:40.213Z,4.57
2022-08-12T15:33:12.384Z,4.40
2022-08-12T15:35:52.060Z,4.40
2022-08-12T15:38:29.113Z,4.70
2022-08-12T15:41:01.018Z,4.67
2022-08-12T15:43:51.521Z,4.70
2022-08-12T15:46:25.683Z,4.77
2022-08-12T15:48:57.562Z,4.10
2022-08-12T15:51:59.164Z,3.90
2022-08-12T15:54:33.825Z,4.40
2022-08-12T15:57:10.712Z,3.73
2022-08-12T16:00:03.699Z,3.63
2022-08-12T16:02:50.688Z,3.50
2022-08-12T16:08:17.219Z,3.20
2022-08-12T16:10:54.771Z,4.17
2022-08-12T16:13:38.128Z,3.70
2022-08-12T16:16:24.729Z,3.10
2022-08-12T16:19:04.487Z,3.60
2022-08-12T16:24:27.903Z,3.17
2022-08-12T16:27:02.828Z,3.50
2022-08-12T16:29:53.279Z,4.23
2022-08-12T16:32:31.069Z,3.50
2022-08-12T16:35:08.270Z,3.23
2022-08-12T16:38:25.528Z,3.83
2022-08-12T16:40:40.187Z,4.37
2022-08-12T16:43:27.284Z,3.67
2022-08-12T16:46:05.568Z,3.70
2022-08-12T16:48:51.296Z,3.90
2022-08-12T16:51:24.986Z,4.67
2022-08-12T16:53:58.562Z,3.87
2022-08-12T16:56:35.319Z,4.00
2022-08-12T16:59:52.912Z,3.77
2022-08-12T17:02:31.735Z,3.60
2022-08-12T17:05:07.287Z,3.90
2022-08-12T17:07:53.125Z,3.60
2022-08-12T17:10:36.463Z,3.00
2022-08-12T17:13:11.036Z,3.70
2022-08-12T17:16:05.592Z,3.50
2022-08-12T17:18:43.372Z,3.10
2022-08-12T17:21:40.663Z,3.53
2022-08-12T17:24:30.435Z,3.07
2022-08-12T17:27:09.535Z,3.57
2022-08-12T17:30:01.283Z,3.10
2022-08-12T17:32:38.505Z,3.10
2022-08-12T17:35:30.138Z,2.90
2022-08-12T17:38:14.629Z,3.03
2022-08-12T17:40:50.013Z,3.23
2022-08-12T17:43:54.683Z,3.23
2022-08-12T17:46:24.098Z,3.33
2022-08-12T17:49:19.517Z,3.20
2022-08-12T17:52:02.069Z,2.90
2022-08-12T17:54:38.316Z,3.17
2022-08-12T17:57:16.204Z,3.40
2022-08-12T17:59:49.941Z,3.27
2022-08-12T18:02:29.840Z,2.87
2022-08-12T18:05:10.083Z,3.50
2022-08-12T18:07:42.096Z,3.10
2022-08-12T18:10:36.140Z,3.10
2022-08-12T18:16:04.358Z,2.77
2022-08-12T18:18:39.638Z,3.60
2022-08-12T18:21:17.780Z,2.93
2022-08-12T18:23:54.061Z,2.93
2022-08-12T18:26:27.556Z,3.00
2022-08-12T18:28:59.611Z,3.20
2022-08-12T18:31:44.537Z,2.73
2022-08-12T18:34:27.887Z,2.80
2022-08-12T18:37:26.915Z,2.87
2022-08-12T18:40:10.941Z,2.90
2022-08-12T18:42:43.289Z,3.20
2022-08-12T18:45:31.612Z,3.27
2022-08-12T18:48:19.508Z,2.80
2022-08-12T18:50:52.000Z,2.77
2022-08-12T18:54:05.247Z,2.43
2022-08-12T18:56:33.352Z,2.67
2022-08-12T18:59:08.289Z,3.17
2022-08-12T19:02:13.436Z,3.20
2022-08-12T19:04:36.364Z,2.73
2022-08-12T19:07:09.024Z,3.17
2022-08-12T19:09:58.907Z,3.30
2022-08-12T19:12:57.412Z,3.67
2022-08-12T19:15:31.108Z,3.07
2022-08-12T19:18:03.485Z,3.40
2022-08-12T19:20:36.964Z,3.57
2022-08-12T19:23:16.372Z,3.57
2022-08-12T19:26:00.865Z,3.57
2022-08-12T19:28:38.674Z,3.17
2022-08-12T19:31:56.774Z,3.17
2022-08-12T19:35:13.873Z,3.23
2022-08-12T19:38:02.620Z,3.10
2022-08-12T19:40:31.893Z,3.10
2022-08-12T19:43:21.028Z,2.97
2022-08-12T19:45:56.476Z,2.83
2022-08-12T19:48:33.024Z,2.70
2022-08-12T19:51:08.980Z,3.00
2022-08-12T19:53:57.769Z,2.50
2022-08-12T19:56:30.204Z,3.00
2022-08-12T19:59:21.653Z,2.93
2022-08-12T20:02:02.290Z,2.80
2022-08-12T20:04:38.593Z,2.73
2022-08-12T20:07:23.636Z,3.10
2022-08-12T20:09:58.939Z,3.00
2022-08-12T20:12:34.825Z,2.90
2022-08-12T20:15:11.091Z,3.03
2022-08-12T20:17:51.130Z,2.63
2022-08-12T20:20:27.665Z,2.90
2022-08-12T20:22:59.367Z,2.60
2022-08-12T20:25:52.620Z,2.80
2022-08-12T20:28:26.461Z,2.40
2022-08-12T20:31:02.300Z,2.90
2022-08-12T20:33:50.685Z,2.47
2022-08-12T20:36:41.096Z,2.70
2022-08-12T20:39:34.104Z,2.40
2022-08-12T20:42:08.231Z,2.70
2022-08-12T20:44:41.770Z,2.80
2022-08-12T20:47:18.220Z,2.93
2022-08-12T20:49:55.338Z,2.63
2022-08-12T20:52:33.937Z,2.60
2022-08-12T20:55:06.376Z,2.73
2022-08-12T20:58:02.022Z,2.67
2022-08-12T21:00:36.862Z,2.63
2022-08-12T21:03:28.781Z,2.70
2022-08-12T21:06:19.589Z,2.70
2022-08-12T21:08:50.478Z,2.53
2022-08-12T21:11:23.325Z,2.70
2022-08-12T21:13:59.305Z,2.23
2022-08-12T21:16:35.958Z,2.73
2022-08-12T21:19:22.335Z,2.50
2022-08-12T21:21:58.773Z,2.20
2022-08-12T21:24:32.281Z,2.70
2022-08-12T21:27:07.376Z,2.57
2022-08-12T21:29:40.144Z,3.00
2022-08-12T21:32:37.361Z,2.90
2022-08-12T21:35:19.405Z,2.97
2022-08-12T21:37:53.180Z,2.67
2022-08-12T21:40:37.258Z,2.63
2022-08-12T21:43:23.693Z,2.57
2022-08-12T21:46:00.715Z,2.60
2022-08-12T21:48:34.102Z,2.60
2022-08-12T21:51:23.434Z,3.00
2022-08-12T21:54:07.329Z,2.33
2022-08-12T21:56:41.995Z,2.37
2022-08-12T21:59:16.339Z,2.67
2022-08-12T22:01:49.762Z,2.77
2022-08-12T22:04:39.295Z,2.80
2022-08-12T22:07:18.851Z,2.97
2022-08-12T22:09:57.135Z,2.77
2022-08-12T22:12:39.508Z,2.93
2022-08-12T22:15:21.698Z,2.40
2022-08-12T22:18:10.452Z,2.90
2022-08-12T22:20:42.034Z,2.50
2022-08-12T22:23:21.427Z,2.83
2022-08-12T22:26:02.119Z,2.60
2022-08-12T22:28:54.475Z,2.80
2022-08-12T22:31:28.904Z,2.80
2022-08-12T22:34:03.862Z,2.70
2022-08-12T22:36:37.781Z,2.70
2022-08-12T22:39:15.889Z,3.03
2022-08-12T22:42:03.432Z,2.80
2022-08-12T22:44:52.654Z,2.90
2022-08-12T22:47:54.645Z,2.90
2022-08-12T22:50:30.026Z,2.93
2022-08-12T22:53:15.793Z,2.73
2022-08-12T22:56:06.501Z,2.90
2022-08-12T22:58:40.816Z,2.53
2022-08-12T23:01:51.580Z,2.70
2022-08-12T23:04:10.215Z,2.60
2022-08-12T23:06:45.294Z,2.30
2022-08-12T23:09:19.554Z,2.70
2022-08-12T23:11:59.559Z,2.40
2022-08-12T23:14:30.484Z,2.73
2022-08-12T23:17:01.963Z,2.60
2022-08-12T23:19:38.910Z,2.40
2022-08-12T23:22:36.865Z,3.10
2022-08-12T23:25:19.000Z,2.70
2022-08-12T23:28:29.623Z,2.70
2022-08-12T23:31:06.648Z,3.03
2022-08-12T23:34:01.393Z,2.90
2022-08-12T23:36:39.893Z,2.80
2022-08-12T23:40:13.569Z,3.17
2022-08-12T23:42:18.232Z,3.27
2022-08-12T23:44:52.726Z,2.70
2022-08-12T23:47:24.533Z,3.70
2022-08-12T23:49:59.807Z,2.97
2022-08-12T23:52:34.452Z,2.73
2022-08-12T23:55:25.195Z,2.60
2022-08-12T23:58:21.589Z,3.17
